Abercarn, United Kingdom
Current Conditions -  °F | °C
As of 4:20 AM on Thursday 27 Nov 2014 (Local Time) from EGFF Reporting Station
Haze Haze  
Wind Chill:   Ceiling: 1100
Heat Index:   Visibility: 1.1mi
Dew Point:   Wind: 3mph
Humidity: 100%   Direction: 40°NE
Pressure: 29.65"   Gusts: NA
Location:  51.65°N, 3.13°W
Report Text: EGFF 270420Z 04003KT 1900 BR BKN011 OVC029 07/07 Q1004
Loading
Personal Weather Stations






























Interactive Weather Map New forecast layout! Learn more

10-Day Weather Forecast

Advertisements
Track Severe Weather on mobile